Time;durP1;ratioP1;P1;durP2;ratioP2;P2;SDS_P1;SDS_P2;PMS_P1;PMS_P2;Temp;Humidity;BMP_temperature;BMP_pressure;BME280_temperature;BME280_humidity;BME280_pressure;Samples;Min_cycle;Max_cycle;Signal;HPM_P1;HPM_P2
2021/06/11 00:01:54;;;;;;;12.88;8.95;;;20.70;99.90;;;;;;5052473;28;20029;-63
2021/06/11 00:04:19;;;;;;;10.52;8.35;;;20.70;99.90;;;;;;5052216;28;20040;-63
2021/06/11 00:06:45;;;;;;;11.73;8.13;;;20.70;99.90;;;;;;5052345;28;20025;-63
2021/06/11 00:09:14;;;;;;;10.20;8.20;;;20.80;99.90;;;;;;5068084;28;20504;-63
2021/06/11 00:11:42;;;;;;;10.70;8.00;;;20.80;99.90;;;;;;5052113;28;20033;-63
2021/06/11 00:14:08;;;;;;;10.20;8.05;;;20.50;99.90;;;;;;5052238;28;20037;-63
2021/06/11 00:16:34;;;;;;;9.77;7.85;;;20.50;99.90;;;;;;5052309;28;20033;-63
2021/06/11 00:19:00;;;;;;;10.43;8.02;;;20.50;99.90;;;;;;5052434;28;20032;-63
2021/06/11 00:21:25;;;;;;;11.10;8.65;;;20.40;99.90;;;;;;5052218;28;20472;-63
2021/06/11 00:23:51;;;;;;;11.38;8.25;;;19.90;99.90;;;;;;5052089;28;20055;-63
2021/06/11 00:26:17;;;;;;;14.52;8.45;;;20.00;99.90;;;;;;5051943;28;20029;-63
2021/06/11 00:28:43;;;;;;;12.85;8.70;;;19.90;99.90;;;;;;5052344;28;20080;-62
2021/06/11 00:31:08;;;;;;;10.90;9.07;;;20.00;99.90;;;;;;5051881;28;20072;-63
2021/06/11 00:33:34;;;;;;;14.85;10.45;;;20.20;99.90;;;;;;5051755;28;20169;-63
2021/06/11 00:36:00;;;;;;;15.13;10.88;;;20.30;99.90;;;;;;5050856;28;20074;-62
2021/06/11 00:38:26;;;;;;;12.77;9.73;;;20.10;99.90;;;;;;5052033;28;20084;-62
2021/06/11 00:40:51;;;;;;;13.27;10.20;;;20.10;99.90;;;;;;5051958;28;20056;-63
2021/06/11 00:43:17;;;;;;;14.73;11.18;;;19.90;99.90;;;;;;5055783;28;20037;-62
2021/06/11 00:45:44;;;;;;;14.27;10.38;;;19.80;99.90;;;;;;5056343;28;20485;-62
2021/06/11 00:48:12;;;;;;;13.65;10.57;;;19.80;99.90;;;;;;5054826;28;20037;-61
2021/06/11 00:50:38;;;;;;;12.95;10.82;;;19.60;99.90;;;;;;5054913;28;20037;-62
2021/06/11 00:53:08;;;;;;;18.45;10.75;;;19.50;99.90;;;;;;5056119;28;20037;-62
2021/06/11 00:55:35;;;;;;;14.90;10.77;;;19.50;99.90;;;;;;5055948;28;20032;-62
2021/06/11 00:58:01;;;;;;;14.27;10.90;;;19.60;99.90;;;;;;5056123;28;20302;-62
2021/06/11 01:00:27;;;;;;;15.15;11.00;;;19.30;99.90;;;;;;5055639;28;20029;-62
2021/06/11 01:02:53;;;;;;;17.65;10.23;;;19.30;99.90;;;;;;5055974;28;20112;-63
2021/06/11 01:05:19;;;;;;;15.70;11.10;;;19.30;99.90;;;;;;5055988;28;20032;-62
2021/06/11 01:07:51;;;;;;;13.07;10.75;;;19.10;99.90;;;;;;5056097;28;20037;-62
2021/06/11 01:10:17;;;;;;;15.07;10.48;;;19.10;99.90;;;;;;5054686;28;20120;-63
2021/06/11 01:12:45;;;;;;;13.27;10.65;;;19.10;99.90;;;;;;5054275;28;20056;-63
2021/06/11 01:15:12;;;;;;;13.82;10.85;;;18.80;99.90;;;;;;5055495;28;20029;-62
2021/06/11 01:17:39;;;;;;;16.00;11.55;;;18.50;99.90;;;;;;5055310;28;20052;-64
2021/06/11 01:20:10;;;;;;;14.63;10.45;;;18.60;99.90;;;;;;5054637;28;20029;-63
2021/06/11 01:23:31;;;;;;;14.25;11.35;;;18.60;99.90;;;;;;5054419;28;20112;-62
2021/06/11 01:26:37;;;;;;;;;;;18.90;99.90;;;;;;5056132;28;20048;-61
2021/06/11 01:29:10;;;;;;;14.82;11.20;;;18.60;99.90;;;;;;5055345;28;19952;-62
2021/06/11 01:31:44;;;;;;;15.52;12.10;;;18.60;99.90;;;;;;5055364;28;20124;-62
2021/06/11 01:34:44;;;;;;;17.13;12.02;;;18.40;99.90;;;;;;5055450;28;20039;-63
2021/06/11 01:37:19;;;;;;;16.00;12.35;;;18.60;99.90;;;;;;5046298;28;20469;-62
2021/06/11 01:39:53;;;;;;;16.77;12.80;;;18.30;99.90;;;;;;5054107;28;20037;-61
2021/06/11 01:42:20;;;;;;;16.90;13.15;;;18.00;99.90;;;;;;5053977;28;20048;-62
2021/06/11 01:44:48;;;;;;;15.88;11.52;;;18.20;99.90;;;;;;5053691;28;20059;-62
2021/06/11 01:47:15;;;;;;;15.75;11.95;;;18.30;99.90;;;;;;5053926;28;20033;-62
2021/06/11 01:49:44;;;;;;;15.70;12.07;;;18.30;99.90;;;;;;5053725;28;20071;-62
2021/06/11 01:52:12;;;;;;;16.35;12.10;;;18.50;99.90;;;;;;5055181;28;20403;-63
2021/06/11 01:54:41;;;;;;;13.43;10.88;;;18.50;99.90;;;;;;5053133;28;20037;-63
2021/06/11 01:57:08;;;;;;;15.82;10.65;;;18.60;99.90;;;;;;5054701;28;20396;-63
2021/06/11 01:59:36;;;;;;;14.27;11.48;;;18.70;99.90;;;;;;5053341;28;20037;-62
2021/06/11 02:02:03;;;;;;;15.63;11.32;;;18.60;99.90;;;;;;5053463;28;20056;-62
2021/06/11 02:04:30;;;;;;;14.45;11.30;;;18.70;99.90;;;;;;5053197;28;20481;-63
2021/06/11 02:06:57;;;;;;;14.05;11.80;;;18.80;99.90;;;;;;5053727;28;20041;-63
2021/06/11 02:09:24;;;;;;;13.98;11.07;;;18.80;99.90;;;;;;5053274;28;20472;-63
2021/06/11 02:11:51;;;;;;;13.57;10.55;;;18.90;99.90;;;;;;5053200;28;20032;-63
2021/06/11 02:14:17;;;;;;;14.07;10.80;;;19.00;99.90;;;;;;5053133;28;20043;-63
2021/06/11 02:16:45;;;;;;;15.18;10.98;;;19.00;99.90;;;;;;5054386;28;20025;-63
2021/06/11 02:19:13;;;;;;;14.88;11.57;;;19.10;99.90;;;;;;5036714;28;20111;-63
2021/06/11 02:21:40;;;;;;;14.05;10.63;;;19.00;99.90;;;;;;5054070;28;20037;-63
2021/06/11 02:24:07;;;;;;;16.77;10.13;;;18.80;99.90;;;;;;5053082;28;20432;-63
2021/06/11 02:26:33;;;;;;;13.00;9.63;;;18.80;99.90;;;;;;5053209;28;20484;-63
2021/06/11 02:28:59;;;;;;;12.10;9.80;;;18.60;99.90;;;;;;5053107;28;20086;-63
2021/06/11 02:31:25;;;;;;;12.35;10.32;;;18.30;99.90;;;;;;5054137;28;20041;-62
2021/06/11 02:33:51;;;;;;;12.30;10.15;;;18.30;99.90;;;;;;5054034;28;20067;-62
2021/06/11 02:36:17;;;;;;;13.40;11.15;;;18.20;99.90;;;;;;5054245;28;20155;-63
2021/06/11 02:38:43;;;;;;;16.55;11.38;;;17.80;99.90;;;;;;5052521;28;20087;-62
2021/06/11 02:41:14;;;;;;;16.58;11.98;;;17.50;99.90;;;;;;5052571;28;20052;-62
2021/06/11 02:43:42;;;;;;;24.02;13.80;;;17.50;99.90;;;;;;5052817;28;20423;-62
2021/06/11 02:46:23;;;;;;;18.17;12.90;;;17.50;99.90;;;;;;5052826;28;20099;-61
2021/06/11 02:49:00;;;;;;;15.32;12.27;;;17.40;99.90;;;;;;5053807;28;20037;-62
2021/06/11 02:51:38;;;;;;;18.92;13.27;;;17.40;99.90;;;;;;5052529;28;20040;-61
2021/06/11 02:54:12;;;;;;;18.63;12.77;;;17.30;99.90;;;;;;5052579;28;20366;-62
2021/06/11 02:56:43;;;;;;;19.65;12.70;;;17.60;99.90;;;;;;5052274;28;20401;-62
2021/06/11 02:59:18;;;;;;;15.25;11.07;;;17.70;99.90;;;;;;5052529;28;20029;-62
2021/06/11 03:01:51;;;;;;;16.25;12.10;;;17.90;99.90;;;;;;5052255;28;20359;-62
2021/06/11 03:04:19;;;;;;;13.82;11.07;;;18.00;99.90;;;;;;5052446;28;20036;-62
2021/06/11 03:06:49;;;;;;;16.50;11.45;;;18.20;99.90;;;;;;5034756;28;20037;-62
2021/06/11 03:09:20;;;;;;;19.33;12.55;;;18.20;99.90;;;;;;5052285;28;20080;-62
2021/06/11 03:11:48;;;;;;;;;;;17.90;99.90;;;;;;5053514;28;20094;-62
2021/06/11 03:14:15;;;;;;;15.88;11.65;;;18.20;99.90;;;;;;5068538;28;19913;-62
2021/06/11 03:16:47;;;;;;;15.60;12.13;;;18.30;99.90;;;;;;5053290;28;20040;-62
2021/06/11 03:19:18;;;;;;;18.27;13.55;;;18.10;99.90;;;;;;5052345;28;20032;-62
2021/06/11 03:21:54;;;;;;;15.70;12.30;;;17.70;99.90;;;;;;5052220;28;20036;-62
2021/06/11 03:25:02;;;;;;;16.65;12.25;;;17.50;99.90;;;;;;5052279;28;20025;-62
2021/06/11 03:27:46;;;;;;;17.10;13.30;;;17.60;99.90;;;;;;5051975;28;20112;-62
2021/06/11 03:30:15;;;;;;;16.67;13.18;;;17.70;99.90;;;;;;5051883;28;20068;-62
2021/06/11 03:32:50;;;;;;;14.93;12.38;;;17.70;99.90;;;;;;5051563;28;20449;-62
2021/06/11 03:35:31;;;;;;;21.33;11.88;;;17.80;99.90;;;;;;5053212;28;20029;-62
2021/06/11 03:38:00;;;;;;;17.70;11.65;;;17.90;99.90;;;;;;5053266;28;20033;-63
2021/06/11 03:40:33;;;;;;;14.30;10.82;;;18.10;99.90;;;;;;5017023;28;20037;-61
2021/06/11 03:43:00;;;;;;;14.27;11.07;;;18.10;99.90;;;;;;5062721;28;20056;-63
2021/06/11 03:45:29;;;;;;;14.75;10.30;;;18.10;99.90;;;;;;5039178;28;20034;-62
2021/06/11 03:48:00;;;;;;;16.27;10.95;;;18.30;99.90;;;;;;5031844;28;20036;-62
2021/06/11 03:50:27;;;;;;;16.70;11.60;;;18.30;99.90;;;;;;5031628;28;20030;-62
2021/06/11 03:53:01;;;;;;;14.32;11.13;;;18.20;99.90;;;;;;5032466;28;20565;-62
2021/06/11 03:55:31;;;;;;;16.55;11.10;;;18.20;99.90;;;;;;5031600;28;20041;-59
2021/06/11 03:58:04;;;;;;;14.25;10.80;;;18.20;99.90;;;;;;5031753;28;20029;-57
2021/06/11 04:00:33;;;;;;;16.00;11.38;;;18.10;99.90;;;;;;5031559;28;20123;-59
2021/06/11 04:03:02;;;;;;;14.60;10.43;;;18.10;99.90;;;;;;5031420;28;20021;-60
2021/06/11 04:05:29;;;;;;;18.42;11.98;;;18.00;99.90;;;;;;5032332;28;20095;-59
2021/06/11 04:07:57;;;;;;;21.80;11.25;;;17.50;99.90;;;;;;5032839;28;20075;-59
2021/06/11 04:10:31;;;;;;;16.30;10.63;;;17.30;99.90;;;;;;5031614;28;20040;-59
2021/06/11 04:13:07;;;;;;;14.90;10.90;;;17.60;99.90;;;;;;5032255;28;20034;-59
2021/06/11 04:15:36;;;;;;;15.93;10.88;;;17.60;99.90;;;;;;5037193;28;20040;-59
2021/06/11 04:18:09;;;;;;;14.07;11.57;;;17.70;99.90;;;;;;5050993;28;20484;-57
2021/06/11 04:20:36;;;;;;;17.30;11.32;;;17.50;99.90;;;;;;5051897;28;20431;-58
2021/06/11 04:23:05;;;;;;;18.92;12.23;;;17.30;99.90;;;;;;5051197;28;20021;-58
2021/06/11 04:25:33;;;;;;;15.15;11.43;;;17.30;99.90;;;;;;5025057;28;20461;-58
2021/06/11 04:28:02;;;;;;;43.42;28.35;;;17.30;99.90;;;;;;5053347;28;20047;-59
2021/06/11 04:30:28;;;;;;;21.67;13.63;;;17.30;99.90;;;;;;5050636;28;20060;-59
2021/06/11 04:32:54;;;;;;;17.95;12.73;;;17.40;99.90;;;;;;5050958;28;20033;-55
2021/06/11 04:35:23;;;;;;;16.33;10.85;;;17.50;99.90;;;;;;5052028;28;20036;-57
2021/06/11 04:37:48;;;;;;;17.08;11.05;;;17.60;99.90;;;;;;5050554;28;20117;-59
2021/06/11 04:40:15;;;;;;;31.67;15.00;;;17.80;99.90;;;;;;5051939;28;20112;-59
2021/06/11 04:42:41;;;;;;;15.13;11.43;;;17.80;99.90;;;;;;5052104;28;20025;-59
2021/06/11 04:45:07;;;;;;;14.55;10.45;;;17.80;99.90;;;;;;5050697;28;20035;-58
2021/06/11 04:47:34;;;;;;;13.65;10.80;;;18.00;99.90;;;;;;5032204;28;20084;-58
2021/06/11 04:50:00;;;;;;;13.75;10.20;;;18.20;99.90;;;;;;5032513;28;20033;-58
2021/06/11 04:52:25;;;;;;;15.23;10.15;;;18.30;99.90;;;;;;5031874;28;20034;-58
2021/06/11 04:54:52;;;;;;;13.73;10.52;;;18.40;99.90;;;;;;5030662;28;20044;-59
2021/06/11 04:57:17;;;;;;;13.00;9.57;;;18.40;99.90;;;;;;5032245;28;20543;-59
2021/06/11 04:59:44;;;;;;;12.77;9.25;;;18.40;99.90;;;;;;5031919;28;20038;-59
2021/06/11 05:02:10;;;;;;;13.32;10.43;;;18.50;99.90;;;;;;5032199;28;20025;-58
2021/06/11 05:04:36;;;;;;;21.58;11.38;;;18.50;99.90;;;;;;5032082;28;20038;-59
2021/06/11 05:07:03;;;;;;;22.55;14.40;;;18.60;99.90;;;;;;5032280;28;20118;-57
2021/06/11 05:09:29;;;;;;;13.45;10.23;;;18.50;99.90;;;;;;5032312;28;20048;-59
2021/06/11 05:11:55;;;;;;;16.23;11.20;;;18.30;99.90;;;;;;5031585;28;20029;-57
2021/06/11 05:14:21;;;;;;;14.20;11.15;;;18.30;99.90;;;;;;5031768;28;20040;-74
2021/06/11 05:16:47;;;;;;;17.48;11.05;;;18.50;99.90;;;;;;5045101;28;20036;-75
2021/06/11 05:19:13;;;;;;;18.23;11.88;;;18.40;99.90;;;;;;5045329;28;20029;-65
2021/06/11 05:21:39;;;;;;;16.98;13.02;;;18.30;99.90;;;;;;5031470;28;20064;-66
2021/06/11 05:24:06;;;;;;;17.33;13.05;;;18.20;99.90;;;;;;5031452;28;20042;-65
2021/06/11 05:26:32;;;;;;;16.40;12.88;;;18.20;99.90;;;;;;5029847;28;20022;-66
2021/06/11 05:28:57;;;;;;;20.60;13.98;;;18.30;99.90;;;;;;5030806;28;20039;-64
2021/06/11 05:31:23;;;;;;;21.30;13.23;;;18.40;99.90;;;;;;5035527;28;20029;-65
2021/06/11 05:33:50;;;;;;;16.52;13.30;;;18.40;99.90;;;;;;5034987;28;20040;-65
2021/06/11 05:36:16;;;;;;;17.67;12.95;;;18.40;99.90;;;;;;5034139;28;20033;-65
2021/06/11 05:38:42;;;;;;;15.68;13.10;;;18.60;99.90;;;;;;5035355;28;20117;-64
2021/06/11 05:41:08;;;;;;;18.48;12.75;;;18.70;99.90;;;;;;5035041;28;20386;-65
2021/06/11 05:43:34;;;;;;;20.08;13.65;;;18.70;99.90;;;;;;5035199;28;20037;-65
2021/06/11 05:46:00;;;;;;;17.25;12.38;;;18.80;99.90;;;;;;5043450;28;20112;-65
2021/06/11 05:48:26;;;;;;;18.00;12.57;;;18.80;99.90;;;;;;5053615;28;20029;-64
2021/06/11 05:50:52;;;;;;;16.30;11.75;;;18.90;99.90;;;;;;5054848;28;20032;-64
2021/06/11 05:53:22;;;;;;;15.93;11.20;;;19.00;99.90;;;;;;5053553;28;20072;-65
2021/06/11 05:55:52;;;;;;;24.87;13.10;;;19.00;99.90;;;;;;5054644;28;20041;-65
2021/06/11 05:58:18;;;;;;;17.48;11.90;;;19.20;99.90;;;;;;5051816;28;20404;-66
2021/06/11 06:00:44;;;;;;;19.50;12.20;;;19.30;99.90;;;;;;5033846;28;20037;-65
2021/06/11 06:03:10;;;;;;;20.98;12.40;;;19.40;99.90;;;;;;5035015;28;20417;-65
2021/06/11 06:05:35;;;;;;;16.58;11.25;;;19.50;99.90;;;;;;5034753;28;20033;-65
2021/06/11 06:08:01;;;;;;;15.15;11.32;;;19.50;99.90;;;;;;5034793;28;20112;-65
2021/06/11 06:10:27;;;;;;;17.42;11.63;;;19.60;99.90;;;;;;5032923;28;20033;-65
2021/06/11 06:12:53;;;;;;;16.13;10.82;;;19.70;99.90;;;;;;5034157;28;20172;-65
2021/06/11 06:15:19;;;;;;;20.20;11.23;;;19.70;99.90;;;;;;5033830;28;20124;-65
2021/06/11 06:17:45;;;;;;;14.13;9.88;;;19.80;99.90;;;;;;5033882;28;20125;-65
2021/06/11 06:20:12;;;;;;;17.15;9.73;;;19.90;99.90;;;;;;5050049;28;20040;-65
2021/06/11 06:22:39;;;;;;;15.02;10.35;;;20.00;99.90;;;;;;5049890;28;20072;-65
2021/06/11 06:25:06;;;;;;;13.57;10.45;;;20.10;99.90;;;;;;5034074;28;20032;-65
2021/06/11 06:27:34;;;;;;;16.25;10.30;;;20.30;99.90;;;;;;5034325;28;20037;-65
2021/06/11 06:30:00;;;;;;;13.98;10.93;;;20.30;99.90;;;;;;5049129;28;20045;-65
2021/06/11 06:32:29;;;;;;;18.63;11.63;;;20.50;99.90;;;;;;5033930;28;20479;-65
2021/06/11 06:34:56;;;;;;;15.60;11.60;;;20.50;99.90;;;;;;5034085;28;20128;-65
2021/06/11 06:37:22;;;;;;;15.77;12.07;;;20.50;99.90;;;;;;5049360;28;20034;-65
2021/06/11 06:39:49;;;;;;;19.52;10.75;;;20.60;99.90;;;;;;5034029;28;20033;-64
2021/06/11 06:42:15;;;;;;;14.38;10.95;;;20.80;99.90;;;;;;5033953;28;20501;-64
2021/06/11 06:44:41;;;;;;;20.90;11.40;;;21.00;99.90;;;;;;5034233;28;20034;-64
2021/06/11 06:47:07;;;;;;;15.75;11.75;;;21.00;99.90;;;;;;5051337;28;20449;-64
2021/06/11 06:49:33;;;;;;;16.92;11.70;;;21.10;99.90;;;;;;5052678;28;20033;-64
2021/06/11 06:51:59;;;;;;;16.67;11.77;;;21.10;99.90;;;;;;5053509;28;20052;-64
2021/06/11 06:54:25;;;;;;;17.38;12.30;;;21.10;99.90;;;;;;5052731;28;20029;-64
2021/06/11 06:56:51;;;;;;;17.65;12.32;;;21.20;99.90;;;;;;5053516;28;20033;-65
2021/06/11 06:59:20;;;;;;;15.77;10.90;;;21.10;99.90;;;;;;5053502;28;20396;-64
2021/06/11 07:01:49;;;;;;;16.05;12.02;;;21.30;99.90;;;;;;5051578;28;20473;-65
2021/06/11 07:04:16;;;;;;;21.90;15.07;;;21.30;99.90;;;;;;5053520;28;20037;-65
2021/06/11 07:06:48;;;;;;;13.40;8.88;;;21.40;99.90;;;;;;5053434;28;20083;-65
2021/06/11 07:09:14;;;;;;;16.73;10.25;;;21.50;99.90;;;;;;5050157;28;20040;-65
2021/06/11 07:11:41;;;;;;;23.27;10.70;;;21.70;99.90;;;;;;5051839;28;20059;-65
2021/06/11 07:14:06;;;;;;;15.93;11.18;;;21.70;99.90;;;;;;5053155;28;20033;-65
2021/06/11 07:16:32;;;;;;;18.85;11.02;;;21.70;99.90;;;;;;5040174;28;20043;-65
2021/06/11 07:18:58;;;;;;;16.55;10.15;;;21.80;99.90;;;;;;5033169;28;20041;-65
2021/06/11 07:21:24;;;;;;;14.30;10.02;;;21.60;99.90;;;;;;5033314;28;20547;-65
2021/06/11 07:23:49;;;;;;;14.30;9.35;;;21.70;99.90;;;;;;5033277;28;20029;-65
2021/06/11 07:26:15;;;;;;;15.32;8.65;;;21.80;99.90;;;;;;5033081;28;20021;-65
2021/06/11 07:28:41;;;;;;;17.35;9.55;;;21.90;99.90;;;;;;5033181;28;20079;-65
2021/06/11 07:31:07;;;;;;;13.50;9.60;;;21.80;99.90;;;;;;5031540;28;20049;-65
2021/06/11 07:33:33;;;;;;;14.95;9.40;;;22.00;99.90;;;;;;5033183;28;20519;-65
2021/06/11 07:36:02;;;;;;;12.70;9.77;;;22.00;99.90;;;;;;5031649;28;20038;-65
2021/06/11 07:38:28;;;;;;;15.98;9.63;;;22.00;99.90;;;;;;5032989;28;20022;-65
2021/06/11 07:40:54;;;;;;;12.80;10.30;;;22.00;99.90;;;;;;5032640;28;20363;-65
2021/06/11 07:43:21;;;;;;;18.55;10.95;;;22.10;99.90;;;;;;5032801;28;20033;-65
2021/06/11 07:45:50;;;;;;;16.27;10.15;;;22.30;99.90;;;;;;5039733;28;20088;-65
2021/06/11 07:48:16;;;;;;;13.73;9.90;;;22.30;99.90;;;;;;5051547;28;20025;-65
2021/06/11 07:50:43;;;;;;;16.65;11.35;;;22.30;99.90;;;;;;5049418;28;20120;-65
2021/06/11 07:53:09;;;;;;;18.02;10.30;;;22.50;99.90;;;;;;5031012;28;20197;-66
2021/06/11 07:55:35;;;;;;;17.13;12.18;;;22.60;99.90;;;;;;5032691;28;20207;-65
2021/06/11 07:58:01;;;;;;;17.52;11.50;;;22.70;99.90;;;;;;5032718;28;20128;-65
2021/06/11 08:00:29;;;;;;;16.08;12.07;;;22.70;99.90;;;;;;5031277;28;20112;-65
2021/06/11 08:02:56;;;;;;;14.63;11.48;;;22.80;99.90;;;;;;5031365;28;20029;-65
2021/06/11 08:05:23;;;;;;;16.95;11.57;;;22.80;99.90;;;;;;5031331;28;20025;-66
2021/06/11 08:07:50;;;;;;;18.88;11.48;;;22.80;99.90;;;;;;5031039;28;20033;-66
2021/06/11 08:10:15;;;;;;;19.67;12.68;;;22.70;99.90;;;;;;5032547;28;20056;-65
2021/06/11 08:12:41;;;;;;;19.70;13.40;;;22.80;99.90;;;;;;5030987;28;20489;-65
2021/06/11 08:15:08;;;;;;;22.35;14.57;;;22.90;99.90;;;;;;5033435;28;20541;-66
2021/06/11 08:17:33;;;;;;;25.58;15.10;;;22.90;99.90;;;;;;5052116;28;20381;-66
2021/06/11 08:19:59;;;;;;;22.65;15.35;;;22.90;99.90;;;;;;5052073;28;20041;-66
2021/06/11 08:22:25;;;;;;;20.92;14.73;;;22.90;99.90;;;;;;5050870;28;20029;-66
2021/06/11 08:24:51;;;;;;;24.33;13.95;;;23.10;99.90;;;;;;5052276;28;20025;-66
2021/06/11 08:27:17;;;;;;;21.92;13.25;;;23.20;99.90;;;;;;5052217;28;20036;-66
2021/06/11 08:29:43;;;;;;;22.42;15.65;;;23.40;99.90;;;;;;5052000;28;20060;-65
2021/06/11 08:32:08;;;;;;;20.55;14.02;;;23.40;99.90;;;;;;5051979;28;20446;-66
2021/06/11 08:34:38;;;;;;;26.35;17.95;;;23.30;99.90;;;;;;5050942;28;20037;-66
2021/06/11 08:37:08;;;;;;;30.23;18.55;;;23.50;99.90;;;;;;5050977;28;20025;-66
2021/06/11 08:39:34;;;;;;;26.30;17.77;;;23.60;99.90;;;;;;5050868;28;20035;-66
2021/06/11 08:42:01;;;;;;;28.85;17.45;;;23.70;99.90;;;;;;5051855;28;20029;-66
2021/06/11 08:44:27;;;;;;;22.63;17.92;;;23.80;99.90;;;;;;5052147;28;20037;-68
2021/06/11 08:46:55;;;;;;;25.02;16.88;;;24.00;99.90;;;;;;5035777;28;20425;-66
2021/06/11 08:49:23;;;;;;;29.13;17.58;;;23.90;99.90;;;;;;5032075;28;20056;-67
2021/06/11 08:51:51;;;;;;;25.83;17.42;;;23.90;99.90;;;;;;5030429;28;20032;-66
2021/06/11 08:54:18;;;;;;;26.77;17.08;;;23.90;99.90;;;;;;5032082;28;20026;-64
2021/06/11 08:56:45;;;;;;;21.08;15.82;;;24.00;99.90;;;;;;5032204;28;20106;-61
2021/06/11 08:59:12;;;;;;;21.45;16.42;;;24.10;99.90;;;;;;5030907;28;20034;-62
2021/06/11 09:01:38;;;;;;;27.95;16.27;;;24.00;99.90;;;;;;5030733;28;20069;-62
2021/06/11 09:04:04;;;;;;;26.50;15.77;;;24.00;99.90;;;;;;5033472;28;20068;-61
2021/06/11 09:06:30;;;;;;;24.25;15.38;;;24.10;99.60;;;;;;5036038;28;20117;-62
2021/06/11 09:08:59;;;;;;;22.60;15.25;;;24.20;99.10;;;;;;5034410;28;20037;-62
2021/06/11 09:11:36;;;;;;;22.55;16.70;;;24.30;99.30;;;;;;5034309;28;20025;-61
2021/06/11 09:14:12;;;;;;;20.30;15.82;;;24.50;99.30;;;;;;5034568;28;20064;-62
2021/06/11 09:16:48;;;;;;;22.80;15.45;;;24.60;99.00;;;;;;5049486;28;20052;-61
2021/06/11 09:19:23;;;;;;;23.33;14.18;;;24.60;98.70;;;;;;5054199;28;20037;-61
2021/06/11 09:21:58;;;;;;;21.65;14.82;;;24.80;98.60;;;;;;5055569;28;20086;-62
2021/06/11 09:24:32;;;;;;;21.85;14.50;;;24.90;98.50;;;;;;5038452;28;20035;-61
2021/06/11 09:26:58;;;;;;;22.60;14.02;;;25.10;98.30;;;;;;5055144;28;20029;-62
2021/06/11 09:29:32;;;;;;;24.42;16.50;;;25.10;98.00;;;;;;5055292;28;20122;-61
2021/06/11 09:32:17;;;;;;;25.42;16.25;;;25.30;98.10;;;;;;5055246;28;20231;-62
2021/06/11 09:34:52;;;;;;;29.15;15.32;;;25.30;97.30;;;;;;5055185;28;20044;-61
2021/06/11 09:37:26;;;;;;;23.33;15.77;;;25.30;97.60;;;;;;5054308;28;20041;-62
2021/06/11 09:39:56;;;;;;;24.63;15.63;;;25.40;97.60;;;;;;5054994;28;20032;-61
2021/06/11 09:42:25;;;;;;;29.20;16.15;;;25.50;96.90;;;;;;5054078;28;20116;-62
2021/06/11 09:44:57;;;;;;;19.48;13.65;;;25.60;96.60;;;;;;5054874;28;20041;-62
2021/06/11 09:47:42;;;;;;;20.90;14.65;;;25.50;96.90;;;;;;5015138;28;20029;-62
2021/06/11 09:50:24;;;;;;;23.33;14.52;;;25.60;96.50;;;;;;5015451;28;20088;-62
2021/06/11 09:53:04;;;;;;;21.02;14.63;;;25.60;96.50;;;;;;5015377;28;20509;-62
2021/06/11 09:55:53;;;;;;;22.55;13.73;;;25.80;96.50;;;;;;5047914;28;20048;-62
2021/06/11 09:58:22;;;;;;;20.25;14.70;;;25.90;96.40;;;;;;5034782;28;20037;-60
2021/06/11 10:00:54;;;;;;;22.90;14.15;;;26.00;96.10;;;;;;5034829;28;20041;-61
2021/06/11 10:03:42;;;;;;;21.08;14.82;;;26.00;95.90;;;;;;5034524;28;20037;-61
2021/06/11 10:06:12;;;;;;;20.88;14.23;;;26.00;95.50;;;;;;5033395;28;20422;-62
2021/06/11 10:08:40;;;;;;;21.48;14.52;;;26.30;95.50;;;;;;5033730;28;20060;-62
2021/06/11 10:11:09;;;;;;;19.83;14.02;;;26.20;95.20;;;;;;5034636;28;20037;-62
2021/06/11 10:13:35;;;;;;;143.70;47.85;;;26.50;94.80;;;;;;5034720;28;20033;-62
2021/06/11 10:16:05;;;;;;;20.33;12.50;;;26.50;95.20;;;;;;5024939;28;20473;-61
2021/06/11 10:18:32;;;;;;;24.17;15.53;;;26.60;94.20;;;;;;5054371;28;20037;-62
2021/06/11 10:20:58;;;;;;;19.77;13.57;;;26.30;94.20;;;;;;5052819;28;20283;-63
2021/06/11 10:23:26;;;;;;;17.92;12.23;;;26.50;94.70;;;;;;5053362;28;20063;-63
2021/06/11 10:25:56;;;;;;;20.75;12.63;;;26.60;94.80;;;;;;5052969;28;20389;-61
2021/06/11 10:28:39;;;;;;;18.60;12.33;;;26.70;94.60;;;;;;5054208;28;20102;-61
2021/06/11 10:31:16;;;;;;;16.25;12.43;;;26.90;93.30;;;;;;5052710;28;20082;-61
2021/06/11 10:33:45;;;;;;;18.50;12.70;;;26.80;93.40;;;;;;5053261;28;20500;-62
2021/06/11 10:36:27;;;;;;;21.30;12.15;;;27.00;92.50;;;;;;5052832;28;20401;-61
2021/06/11 10:39:23;;;;;;;18.15;11.90;;;26.70;92.40;;;;;;5054334;28;20078;-61
2021/06/11 10:42:03;;;;;;;15.85;10.45;;;26.90;92.50;;;;;;5054022;28;20061;-62
2021/06/11 10:44:43;;;;;;;13.25;9.60;;;27.30;93.40;;;;;;5053109;28;20476;-61
2021/06/11 10:47:15;;;;;;;15.13;10.93;;;27.50;92.90;;;;;;5034327;28;20481;-61
2021/06/11 10:49:59;;;;;;;20.33;12.25;;;27.60;91.00;;;;;;5033927;28;20084;-62
2021/06/11 10:52:53;;;;;;;14.80;9.25;;;27.80;91.00;;;;;;5033926;28;20085;-61
2021/06/11 10:55:19;;;;;;;15.75;11.65;;;28.00;90.80;;;;;;5032657;28;20482;-62
2021/06/11 10:58:11;;;;;;;13.45;9.48;;;28.10;89.90;;;;;;5034042;28;20041;-62
2021/06/11 11:00:39;;;;;;;16.88;10.75;;;27.90;90.50;;;;;;5033605;28;20033;-62
2021/06/11 11:03:22;;;;;;;16.55;10.52;;;28.20;90.30;;;;;;5032607;28;20029;-62
2021/06/11 11:05:48;;;;;;;16.02;10.55;;;28.10;89.00;;;;;;5033942;28;20041;-63
2021/06/11 11:08:14;;;;;;;18.48;10.60;;;27.80;90.20;;;;;;5032330;28;20053;-62
2021/06/11 11:10:43;;;;;;;14.20;10.35;;;27.50;90.70;;;;;;5033694;28;20057;-62
2021/06/11 11:13:18;;;;;;;11.63;7.85;;;27.30;90.90;;;;;;5033086;28;20114;-62
2021/06/11 11:15:49;;;;;;;11.75;7.55;;;27.50;89.70;;;;;;5033269;28;20450;-62
2021/06/11 11:18:22;;;;;;;9.77;5.47;;;27.90;88.60;;;;;;5033247;28;20493;-62
2021/06/11 11:20:49;;;;;;;10.15;5.30;;;28.40;85.10;;;;;;5031954;28;20497;-62
2021/06/11 11:23:20;;;;;;;7.57;4.85;;;28.70;83.00;;;;;;5033005;28;20120;-62
2021/06/11 11:25:47;;;;;;;8.48;5.35;;;28.90;81.70;;;;;;5032971;28;20033;-62
2021/06/11 11:28:16;;;;;;;6.43;4.30;;;28.50;80.80;;;;;;5031343;28;20389;-62
2021/06/11 11:30:45;;;;;;;5.55;3.00;;;28.80;81.70;;;;;;5032940;28;20071;-62
2021/06/11 11:33:13;;;;;;;6.28;3.13;;;28.60;76.60;;;;;;5032986;28;20040;-62
2021/06/11 11:35:51;;;;;;;4.43;3.33;;;29.40;77.30;;;;;;5032965;28;20036;-62
2021/06/11 11:38:17;;;;;;;4.45;2.67;;;29.60;75.10;;;;;;5032856;28;20033;-62
2021/06/11 11:40:42;;;;;;;3.67;2.45;;;29.60;72.60;;;;;;5031496;28;20689;-62
2021/06/11 11:43:09;;;;;;;4.65;2.38;;;29.80;72.60;;;;;;5047659;28;20034;-62
2021/06/11 11:45:37;;;;;;;4.95;2.35;;;30.00;70.80;;;;;;5038245;28;20123;-62
2021/06/11 11:48:06;;;;;;;4.40;1.88;;;30.00;71.40;;;;;;5052427;28;20033;-63
2021/06/11 11:50:35;;;;;;;4.13;1.92;;;30.10;69.40;;;;;;5023558;28;20128;-62
2021/06/11 11:53:02;;;;;;;4.43;1.98;;;30.10;69.60;;;;;;5048104;28;20025;-62
2021/06/11 11:55:28;;;;;;;2.97;2.00;;;30.30;69.40;;;;;;5052585;28;20163;-62
2021/06/11 11:57:54;;;;;;;5.53;2.20;;;29.90;69.40;;;;;;5052526;28;20051;-62
2021/06/11 12:00:21;;;;;;;5.13;2.00;;;29.90;69.90;;;;;;5051987;28;20473;-62
2021/06/11 12:02:47;;;;;;;4.63;1.83;;;30.40;69.20;;;;;;5052441;28;20033;-62
2021/06/11 12:05:15;;;;;;;3.03;1.92;;;30.60;68.00;;;;;;5047667;28;20505;-62
2021/06/11 12:07:42;;;;;;;3.47;2.00;;;30.70;67.30;;;;;;5052579;28;20143;-62
2021/06/11 12:10:09;;;;;;;6.97;2.28;;;30.80;67.70;;;;;;5052267;28;20033;-62
2021/06/11 12:12:35;;;;;;;2.70;1.67;;;30.50;66.50;;;;;;5052124;28;20029;-62
2021/06/11 12:15:01;;;;;;;3.70;1.90;;;30.80;67.30;;;;;;5051580;28;20031;-62
2021/06/11 12:17:27;;;;;;;3.03;1.58;;;30.70;67.40;;;;;;5032310;28;20034;-62
2021/06/11 12:19:53;;;;;;;5.10;2.20;;;30.80;67.40;;;;;;5032272;28;20042;-62
2021/06/11 12:22:19;;;;;;;3.78;1.77;;;30.60;68.30;;;;;;5032186;28;20033;-62
2021/06/11 12:24:45;;;;;;;4.13;1.90;;;31.00;67.00;;;;;;5032190;28;20037;-62
2021/06/11 12:27:11;;;;;;;3.33;1.90;;;31.20;67.80;;;;;;5031512;28;20025;-62
2021/06/11 12:29:37;;;;;;;2.53;1.60;;;31.40;67.30;;;;;;5031613;28;20052;-62
2021/06/11 12:32:04;;;;;;;8.07;2.60;;;31.20;66.40;;;;;;5032238;28;20022;-62
2021/06/11 12:34:30;;;;;;;3.50;1.80;;;31.30;65.60;;;;;;5032082;28;20039;-62
2021/06/11 12:36:56;;;;;;;2.22;1.30;;;31.30;64.60;;;;;;5030818;28;20037;-62
2021/06/11 12:39:22;;;;;;;1.92;1.13;;;31.20;63.50;;;;;;5035824;28;20034;-62
2021/06/11 12:41:55;;;;;;;2.90;1.60;;;31.30;62.30;;;;;;5036299;28;20677;-62